Gifford, IL (61847)

7:12 AM CDT on August 24, 2016 (GMT -0500)
Flatville | | Change Station

Elev 686 ft 40.24 °N, 88.06 °W | Updated 4 minutes ago

Scattered Clouds
Scattered Clouds
70.4 °F
Feels Like 70.4 °F
N
1.0
Wind Variable Wind from SSE
Gusts 7.0 mph

Today
High -- | Low -- °F
--% Chance of Precip.
Yesterday
High -- | Low -- °F
Precip. -- in
Pressure 30.05 in
Visibility 5.0 miles
Clouds Scattered Clouds 1000 ft
Dew Point 69 °F
Humidity 94%
Rainfall 0.00 in
Snow Depth Not available.
6:12 AM 7:35 PM
Waning Gibbous, 57% visible
METAR KTIP 241150Z AUTO 16007KT 5SM BR SCT010 22/21 A3005 RMK AO2 LTG DSNT W T02180211 10220 20205
Pressure 30.05 in
Visibility 5.0 miles
Clouds Scattered Clouds 1000 ft
Dew Point 69 °F
Humidity 94%
Rainfall 0.00 in
Snow Depth Not available.
6:12 AM 7:35 PM
Waning Gibbous, 57% visible
METAR KTIP 241150Z AUTO 16007KT 5SM BR SCT010 22/21 A3005 RMK AO2 LTG DSNT W T02180211 10220 20205

10-Day Weather Forecast

Almanac

Astronomy

Aug. 24, 2016 Rise Set
Actual Time
Civil Twilight
Nautical Twilight
Astronomical Twilight
Moon
Length of Visible Light
Length of Day
Tomorrow will be .
, % of the Moon is Illuminated

Today's Extremes

State Highs State Lows

Community

WunderPhotos

Upload Photos

1,934,578 photos uploaded!

WunderBlog® & News

Nearby

Air Quality

  Air Quality AQ Index Pollutant
Not available.

Snow Depth

Station Depth Elevation

Earthquake Activity

City Distance Mag. Time & Date
Minimum magnitude displayed is 2.5.

Coastal Water Temperatures

Place Temperature

Stations

Nearby Weather Stations

Station Location Temp. Windchill Dew Point Humidity Wind Precip. Elev Updated Type
                   

Watches & Warnings

There are currently no watches in effect.